Terminal Aerodrome Forecast
Issued by NWS

Home | Current Version | Previous Version | Text Only | Print | Product List | Glossary On
Versions: 1 2 3 4 5 6 7 8 9 10 11 12 13 14 15 16 17 18 19 20 21 22 23 24 25 26
000
FTUS45 KTFX 170557
TAFEKS
TAF
KEKS 170557Z 1706/1806 16017KT P6SM BKN080
     FM171500 17010G20KT 2SM -SN BKN015 OVC030
      TEMPO 1716/1719 3/4SM -SN BR BKN008
     FM172000 18012G22KT P6SM SCT030 BKN050=

USA.gov is the U.S. government's official web portal to all federal, state and local government web resources and services.